Roosevelt, Oklahoma
Current Conditions -  °F | °C
As of 4:53 AM on Tuesday 21 Oct 2014 (Local Time) from KHBR Reporting Station
Broken Clouds Broken Clouds  
Wind Chill: 60°   Ceiling: 6000
Heat Index: 60°   Visibility: 8mi
Dew Point: 56°   Wind: 5mph
Humidity: 86%   Direction: 200°SSW
Pressure: 30.07"   Gusts: NA
Location:  34.85°N, 99.02°W
Report Text: KHBR 210953Z AUTO 20004KT 8SM BKN060 16/13 A3007 RMK AO2 SLP167 T01560133
Loading
Personal Weather Stations






























Interactive Weather Map New forecast layout! Learn more

10-Day Weather Forecast

Advertisements
Track Severe Weather on mobile